createdAt,value
2023-04-28T00:02:08.561Z,3.92
2023-04-28T00:05:50.430Z,3.90
2023-04-28T00:09:32.242Z,3.10
2023-04-28T00:13:14.091Z,3.63
2023-04-28T00:16:58.428Z,3.53
2023-04-28T00:20:40.300Z,3.70
2023-04-28T00:24:22.077Z,3.15
2023-04-28T00:28:03.982Z,3.22
2023-04-28T00:31:45.997Z,2.92
2023-04-28T00:35:27.842Z,2.80
2023-04-28T00:39:10.143Z,3.05
2023-04-28T00:42:51.976Z,3.17
2023-04-28T00:46:34.460Z,3.25
2023-04-28T00:50:17.077Z,3.30
2023-04-28T00:53:59.035Z,3.03
2023-04-28T00:57:41.445Z,3.17
2023-04-28T01:01:23.450Z,3.00
2023-04-28T01:05:05.674Z,2.80
2023-04-28T01:08:51.097Z,2.88
2023-04-28T01:12:33.293Z,3.05
2023-04-28T01:16:15.271Z,3.10
2023-04-28T01:19:57.196Z,2.90
2023-04-28T01:23:39.090Z,2.65
2023-04-28T01:27:20.954Z,2.33
2023-04-28T01:31:02.816Z,2.20
2023-04-28T01:34:44.621Z,2.15
2023-04-28T01:38:26.454Z,2.05
2023-04-28T01:42:08.321Z,2.55
2023-04-28T01:45:50.343Z,2.25
2023-04-28T01:49:32.280Z,2.42
2023-04-28T01:53:14.609Z,1.48
2023-04-28T01:56:56.373Z,1.73
2023-04-28T02:00:38.201Z,1.60
2023-04-28T02:04:20.110Z,1.77
2023-04-28T02:08:02.110Z,1.40
2023-04-28T02:11:43.896Z,1.27
2023-04-28T02:15:25.777Z,1.42
2023-04-28T02:19:07.552Z,1.40
2023-04-28T02:22:49.753Z,2.08
2023-04-28T02:26:31.598Z,1.23
2023-04-28T02:30:13.714Z,1.20
2023-04-28T02:33:56.091Z,1.50
2023-04-28T02:37:37.950Z,1.65
2023-04-28T02:41:19.916Z,1.65
2023-04-28T02:45:01.823Z,1.23
2023-04-28T02:48:43.606Z,1.33
2023-04-28T02:52:25.401Z,1.38
2023-04-28T02:56:07.567Z,1.42
2023-04-28T02:59:49.382Z,1.50
2023-04-28T03:03:31.294Z,1.23
2023-04-28T03:07:13.223Z,1.35
2023-04-28T03:10:55.031Z,1.40
2023-04-28T03:14:36.821Z,1.27
2023-04-28T03:18:18.807Z,1.48
2023-04-28T03:22:00.756Z,1.08
2023-04-28T03:25:42.557Z,1.40
2023-04-28T03:29:25.628Z,1.55
2023-04-28T03:33:07.500Z,1.13
2023-04-28T03:36:49.398Z,1.10
2023-04-28T03:40:31.306Z,1.00
2023-04-28T03:44:13.192Z,1.20
2023-04-28T03:47:55.086Z,1.00
2023-04-28T03:51:36.944Z,1.45
2023-04-28T03:55:18.787Z,1.00
2023-04-28T03:59:00.769Z,1.17
2023-04-28T04:02:42.720Z,1.20
2023-04-28T04:06:24.903Z,0.95
2023-04-28T04:10:07.360Z,0.88
2023-04-28T04:13:49.210Z,1.13
2023-04-28T04:17:31.666Z,0.75
2023-04-28T04:21:13.592Z,0.93
2023-04-28T04:24:55.411Z,0.82
2023-04-28T04:28:37.269Z,0.70
2023-04-28T04:32:19.078Z,0.70
2023-04-28T04:36:01.204Z,0.40
2023-04-28T04:39:43.035Z,0.60
2023-04-28T04:43:25.022Z,0.60
2023-04-28T04:47:07.382Z,0.38
2023-04-28T04:50:49.412Z,0.70
2023-04-28T04:54:31.276Z,0.63
2023-04-28T04:58:13.121Z,0.50
2023-04-28T05:01:55.028Z,0.50
2023-04-28T05:05:36.858Z,0.40
2023-04-28T05:09:18.683Z,0.30
2023-04-28T05:13:00.715Z,0.32
2023-04-28T05:16:43.006Z,0.30
2023-04-28T05:20:25.124Z,0.35
2023-04-28T05:24:07.153Z,0.30
2023-04-28T05:27:49.019Z,0.20
2023-04-28T05:31:30.969Z,0.20
2023-04-28T05:35:12.835Z,0.70
2023-04-28T05:38:54.744Z,0.20
2023-04-28T05:42:36.633Z,0.30
2023-04-28T05:46:30.054Z,0.40
2023-04-28T05:50:12.749Z,0.38
2023-04-28T05:53:54.613Z,0.30
2023-04-28T05:57:49.324Z,0.30
2023-04-28T06:01:34.497Z,0.30
2023-04-28T06:05:16.695Z,0.43
2023-04-28T06:08:58.893Z,0.20
2023-04-28T06:12:40.946Z,0.20
2023-04-28T06:16:23.581Z,0.20
2023-04-28T06:20:07.646Z,0.20
2023-04-28T06:23:49.577Z,0.20
2023-04-28T06:27:32.968Z,0.20
2023-04-28T06:31:14.814Z,0.15
2023-04-28T06:34:58.399Z,0.10
2023-04-28T06:38:42.927Z,0.10
2023-04-28T06:42:26.037Z,0.13
2023-04-28T06:46:08.711Z,0.30
2023-04-28T06:49:50.918Z,0.30
2023-04-28T06:53:32.801Z,0.40
2023-04-28T06:57:14.759Z,0.40
2023-04-28T07:00:56.656Z,0.50
2023-04-28T07:04:38.866Z,0.30
2023-04-28T07:08:21.106Z,0.70
2023-04-28T07:12:04.393Z,0.40
2023-04-28T07:15:46.691Z,0.50
2023-04-28T07:19:28.513Z,0.70
2023-04-28T07:23:10.294Z,1.30
2023-04-28T07:26:52.299Z,1.63
2023-04-28T07:30:34.975Z,1.50
2023-04-28T07:34:17.121Z,1.67
2023-04-28T07:37:59.271Z,1.73
2023-04-28T07:41:42.341Z,2.40
2023-04-28T07:45:24.228Z,1.60
2023-04-28T07:49:06.075Z,2.20
2023-04-28T07:52:47.857Z,1.85
2023-04-28T07:56:30.549Z,2.13
2023-04-28T08:00:13.037Z,2.10
2023-04-28T08:03:55.083Z,2.40
2023-04-28T08:07:37.591Z,1.90
2023-04-28T08:11:19.500Z,2.22
2023-04-28T08:15:01.556Z,2.55
2023-04-28T08:18:43.606Z,1.83
2023-04-28T08:22:25.659Z,2.03
2023-04-28T08:26:07.600Z,2.15
2023-04-28T08:29:49.933Z,2.50
2023-04-28T08:33:31.994Z,1.92
2023-04-28T08:37:14.187Z,2.53
2023-04-28T08:40:56.292Z,2.13
2023-04-28T08:44:39.974Z,2.20
2023-04-28T08:48:23.067Z,2.63
2023-04-28T08:52:11.951Z,2.08
2023-04-28T08:55:58.134Z,2.20
2023-04-28T08:59:41.418Z,2.08
2023-04-28T09:03:23.521Z,1.77
2023-04-28T09:07:11.922Z,2.00
2023-04-28T09:11:08.306Z,1.83
2023-04-28T09:14:58.474Z,2.03
2023-04-28T09:18:41.178Z,2.13
2023-04-28T09:22:28.523Z,2.22
2023-04-28T09:26:11.124Z,2.45
2023-04-28T09:29:54.335Z,2.20
2023-04-28T09:33:36.432Z,2.60
2023-04-28T09:37:23.429Z,1.90
2023-04-28T09:41:05.417Z,2.35
2023-04-28T09:44:53.867Z,1.75
2023-04-28T09:48:38.903Z,1.30
2023-04-28T09:52:21.273Z,1.48
2023-04-28T09:56:05.532Z,1.40
2023-04-28T09:59:52.678Z,1.15
2023-04-28T10:03:35.282Z,0.85
2023-04-28T10:07:21.081Z,1.23
2023-04-28T10:11:03.715Z,2.10
2023-04-28T10:14:47.492Z,2.42
2023-04-28T10:18:30.315Z,2.33
2023-04-28T10:22:34.098Z,2.28
2023-04-28T10:26:19.983Z,1.98
2023-04-28T10:30:35.301Z,1.90
2023-04-28T10:34:24.444Z,2.30
2023-04-28T10:38:12.454Z,2.40
2023-04-28T10:41:54.355Z,3.22
2023-04-28T10:45:56.586Z,2.45
2023-04-28T10:49:59.754Z,2.70
2023-04-28T10:53:44.878Z,2.08
2023-04-28T10:57:27.146Z,1.90
2023-04-28T11:01:25.170Z,1.80
2023-04-28T11:05:14.018Z,2.45
2023-04-28T11:09:00.777Z,2.55
2023-04-28T11:13:20.515Z,2.78
2023-04-28T11:17:07.037Z,2.20
2023-04-28T11:20:57.147Z,2.28
2023-04-28T11:24:39.417Z,1.80
2023-04-28T11:28:21.426Z,1.63
2023-04-28T11:32:08.056Z,1.88
2023-04-28T11:35:49.963Z,2.17
2023-04-28T11:39:33.492Z,2.88
2023-04-28T11:43:15.525Z,2.58
2023-04-28T11:47:01.265Z,2.15
2023-04-28T11:50:45.535Z,2.00
2023-04-28T11:54:29.244Z,1.90
2023-04-28T11:58:28.003Z,1.88
2023-04-28T12:02:09.994Z,1.05
2023-04-28T12:05:51.970Z,1.92
2023-04-28T12:09:35.474Z,1.65
2023-04-28T12:13:17.344Z,2.10
2023-04-28T12:16:59.175Z,1.83
2023-04-28T12:20:42.739Z,1.63
2023-04-28T12:24:26.124Z,1.98
2023-04-28T12:28:08.713Z,2.17
2023-04-28T12:31:52.980Z,3.40
2023-04-28T12:35:35.271Z,3.35
2023-04-28T12:39:19.830Z,4.35
2023-04-28T12:43:01.660Z,3.83
2023-04-28T12:46:44.190Z,4.68
2023-04-28T12:50:27.900Z,3.88
2023-04-28T12:54:09.760Z,4.30
2023-04-28T12:57:52.011Z,3.95
2023-04-28T13:01:34.038Z,3.75
2023-04-28T13:05:16.048Z,4.13
2023-04-28T13:08:57.893Z,3.90
2023-04-28T13:12:39.972Z,3.58
2023-04-28T13:16:21.875Z,4.15
2023-04-28T13:20:05.294Z,4.10
2023-04-28T13:23:47.198Z,3.85
2023-04-28T13:27:30.634Z,3.65
2023-04-28T13:31:12.820Z,2.90
2023-04-28T13:34:54.689Z,2.30
2023-04-28T13:38:36.767Z,2.70
2023-04-28T13:42:18.603Z,3.35
2023-04-28T13:46:00.846Z,2.28
2023-04-28T13:49:43.661Z,2.90
2023-04-28T13:53:25.904Z,3.33
2023-04-28T13:57:07.881Z,3.30
2023-04-28T14:00:49.701Z,3.90
2023-04-28T14:04:31.969Z,2.90
2023-04-28T14:08:14.650Z,2.47
2023-04-28T14:11:56.864Z,2.70
2023-04-28T14:15:51.113Z,2.72
2023-04-28T14:19:39.485Z,2.65
2023-04-28T14:23:24.138Z,3.42
2023-04-28T14:27:06.212Z,2.63
2023-04-28T14:30:48.097Z,3.13
2023-04-28T14:34:30.250Z,2.80
2023-04-28T14:38:13.921Z,2.33
2023-04-28T14:41:55.857Z,2.15
2023-04-28T14:45:38.403Z,2.17
2023-04-28T14:49:20.320Z,2.55
2023-04-28T14:53:06.877Z,2.70
2023-04-28T14:56:51.773Z,2.08
2023-04-28T15:00:34.670Z,2.40
2023-04-28T15:04:16.859Z,2.75
2023-04-28T15:07:58.802Z,2.47
2023-04-28T15:11:41.079Z,2.92
2023-04-28T15:15:22.931Z,3.78
2023-04-28T15:19:04.881Z,3.53
2023-04-28T15:22:46.711Z,3.67
2023-04-28T15:26:29.988Z,3.40
2023-04-28T15:30:12.448Z,3.00
2023-04-28T15:33:54.576Z,3.50
2023-04-28T15:37:43.014Z,3.65
2023-04-28T15:41:25.020Z,3.38
2023-04-28T15:45:07.776Z,3.15
2023-04-28T15:48:50.062Z,3.03
2023-04-28T15:52:31.960Z,2.50
2023-04-28T15:56:13.794Z,2.63
2023-04-28T15:59:55.678Z,3.53
2023-04-28T16:03:38.718Z,2.97
2023-04-28T16:07:20.823Z,2.20
2023-04-28T16:11:03.848Z,3.30
2023-04-28T16:14:49.725Z,2.70
2023-04-28T16:18:32.141Z,2.67
2023-04-28T16:22:14.097Z,3.13
2023-04-28T16:25:56.044Z,3.30
2023-04-28T16:29:37.825Z,3.42
2023-04-28T16:33:20.047Z,3.88
2023-04-28T16:37:02.685Z,4.18
2023-04-28T16:40:44.512Z,4.32
2023-04-28T16:44:27.745Z,3.50
2023-04-28T16:48:09.849Z,3.00
2023-04-28T16:52:04.737Z,3.33
2023-04-28T16:55:46.569Z,3.42
2023-04-28T16:59:31.236Z,3.10
2023-04-28T17:03:13.148Z,3.17
2023-04-28T17:06:55.380Z,3.03
2023-04-28T17:10:38.889Z,3.22
2023-04-28T17:14:21.198Z,3.03
2023-04-28T17:18:03.169Z,2.88
2023-04-28T17:21:46.413Z,8.73
2023-04-28T17:25:29.198Z,3.60
2023-04-28T17:29:11.055Z,6.57
2023-04-28T17:32:53.184Z,6.07
2023-04-28T17:36:35.290Z,3.58
2023-04-28T17:40:17.673Z,3.08
2023-04-28T17:43:59.800Z,2.80
2023-04-28T17:47:41.697Z,2.83
2023-04-28T17:51:23.680Z,2.78
2023-04-28T17:55:06.120Z,2.63
2023-04-28T17:58:47.989Z,2.75
2023-04-28T18:02:29.932Z,2.38
2023-04-28T18:06:11.850Z,2.88
2023-04-28T18:09:54.569Z,2.65
2023-04-28T18:13:36.857Z,2.40
2023-04-28T18:17:18.737Z,2.97
2023-04-28T18:21:02.358Z,3.15
2023-04-28T18:24:44.555Z,2.50
2023-04-28T18:28:26.428Z,2.70
2023-04-28T18:32:08.505Z,2.95
2023-04-28T18:36:02.111Z,1.85
2023-04-28T18:39:43.898Z,1.83
2023-04-28T18:43:27.914Z,2.08
2023-04-28T18:47:09.816Z,1.98
2023-04-28T18:50:51.992Z,2.33
2023-04-28T18:54:34.225Z,1.92
2023-04-28T18:58:16.227Z,1.65
2023-04-28T19:01:58.601Z,1.92
2023-04-28T19:05:45.295Z,2.15
2023-04-28T19:09:27.111Z,1.80
2023-04-28T19:13:08.971Z,1.52
2023-04-28T19:16:50.850Z,1.55
2023-04-28T19:20:32.849Z,2.15
2023-04-28T19:24:14.673Z,2.10
2023-04-28T19:27:56.628Z,1.90
2023-04-28T19:31:38.409Z,2.28
2023-04-28T19:35:21.073Z,1.98
2023-04-28T19:39:03.852Z,2.17
2023-04-28T19:42:45.665Z,2.38
2023-04-28T19:46:27.498Z,1.92
2023-04-28T19:50:10.683Z,2.20
2023-04-28T19:53:52.550Z,2.80
2023-04-28T19:57:34.546Z,2.60
2023-04-28T20:01:16.376Z,2.08
2023-04-28T20:04:58.897Z,2.60
2023-04-28T20:08:41.719Z,2.53
2023-04-28T20:12:24.463Z,1.98
2023-04-28T20:16:07.113Z,1.85
2023-04-28T20:19:49.376Z,2.03
2023-04-28T20:23:31.592Z,2.00
2023-04-28T20:27:13.534Z,1.90
2023-04-28T20:30:55.417Z,2.13
2023-04-28T20:34:37.300Z,2.25
2023-04-28T20:38:19.857Z,1.67
2023-04-28T20:42:02.604Z,1.80
2023-04-28T20:45:44.683Z,2.03
2023-04-28T20:49:26.526Z,1.85
2023-04-28T20:53:09.153Z,2.00
2023-04-28T20:56:51.096Z,2.30
2023-04-28T21:00:34.043Z,2.03
2023-04-28T21:04:16.204Z,1.85
2023-04-28T21:07:58.238Z,1.95
2023-04-28T21:11:40.993Z,2.10
2023-04-28T21:15:22.924Z,2.10
2023-04-28T21:19:04.738Z,2.60
2023-04-28T21:22:46.928Z,2.20
2023-04-28T21:26:28.742Z,2.40
2023-04-28T21:30:12.955Z,2.83
2023-04-28T21:33:54.827Z,2.72
2023-04-28T21:37:36.965Z,2.42
2023-04-28T21:41:18.779Z,3.40
2023-04-28T21:45:00.972Z,2.55
2023-04-28T21:48:42.772Z,2.67
2023-04-28T21:52:24.611Z,2.50
2023-04-28T21:56:06.739Z,2.33
2023-04-28T21:59:48.858Z,2.00
2023-04-28T22:03:35.004Z,2.47
2023-04-28T22:07:17.095Z,1.90
2023-04-28T22:10:59.088Z,2.03
2023-04-28T22:14:41.572Z,1.73
2023-04-28T22:18:23.601Z,1.33
2023-04-28T22:22:05.664Z,1.95
2023-04-28T22:25:47.998Z,1.58
2023-04-28T22:29:29.758Z,2.25
2023-04-28T22:33:11.635Z,1.90
2023-04-28T22:36:53.451Z,2.70
2023-04-28T22:40:36.613Z,2.33
2023-04-28T22:44:18.419Z,1.92
2023-04-28T22:48:00.667Z,1.92
2023-04-28T22:51:42.478Z,2.15
2023-04-28T22:55:24.301Z,2.05
2023-04-28T22:59:06.105Z,1.92
2023-04-28T23:02:48.066Z,1.88
2023-04-28T23:06:30.044Z,1.75
2023-04-28T23:10:14.428Z,1.90
2023-04-28T23:13:56.555Z,1.80
2023-04-28T23:17:38.530Z,1.67
2023-04-28T23:21:20.345Z,1.60
2023-04-28T23:25:02.230Z,1.67
2023-04-28T23:28:44.053Z,2.10
2023-04-28T23:32:25.936Z,1.70
2023-04-28T23:36:08.062Z,2.00
2023-04-28T23:39:50.101Z,2.17
2023-04-28T23:43:32.276Z,2.72
2023-04-28T23:47:14.499Z,3.35
2023-04-28T23:50:56.698Z,3.15
2023-04-28T23:54:38.523Z,3.33
2023-04-28T23:58:20.550Z,3.58
